sensor_id;sensor_type;location;lat;lon;timestamp;P1;durP1;ratioP1;P2;durP2;ratioP2
9689;SDS011;4884;42.614;23.340;2023-05-16T00:01:08;12.97;;;11.33;;
9689;SDS011;4884;42.614;23.340;2023-05-16T00:03:34;14.83;;;12.33;;
9689;SDS011;4884;42.614;23.340;2023-05-16T00:06:01;17.07;;;13.80;;
9689;SDS011;4884;42.614;23.340;2023-05-16T00:08:27;18.37;;;12.90;;
9689;SDS011;4884;42.614;23.340;2023-05-16T00:10:53;17.03;;;13.37;;
9689;SDS011;4884;42.614;23.340;2023-05-16T00:13:18;19.63;;;14.03;;
9689;SDS011;4884;42.614;23.340;2023-05-16T00:15:49;16.53;;;14.73;;
9689;SDS011;4884;42.614;23.340;2023-05-16T00:18:15;21.97;;;14.57;;
9689;SDS011;4884;42.614;23.340;2023-05-16T00:20:42;16.37;;;13.37;;
9689;SDS011;4884;42.614;23.340;2023-05-16T00:23:07;20.77;;;15.27;;
9689;SDS011;4884;42.614;23.340;2023-05-16T00:25:33;17.70;;;13.43;;
9689;SDS011;4884;42.614;23.340;2023-05-16T00:27:58;20.50;;;15.20;;
9689;SDS011;4884;42.614;23.340;2023-05-16T00:30:23;19.83;;;14.37;;
9689;SDS011;4884;42.614;23.340;2023-05-16T00:32:49;15.63;;;12.40;;
9689;SDS011;4884;42.614;23.340;2023-05-16T00:35:14;17.50;;;12.07;;
9689;SDS011;4884;42.614;23.340;2023-05-16T00:37:40;21.53;;;12.90;;
9689;SDS011;4884;42.614;23.340;2023-05-16T00:40:05;19.07;;;13.20;;
9689;SDS011;4884;42.614;23.340;2023-05-16T00:42:31;21.70;;;13.30;;
9689;SDS011;4884;42.614;23.340;2023-05-16T00:44:57;16.33;;;12.47;;
9689;SDS011;4884;42.614;23.340;2023-05-16T00:47:23;15.53;;;13.40;;
9689;SDS011;4884;42.614;23.340;2023-05-16T00:49:48;15.40;;;13.40;;
9689;SDS011;4884;42.614;23.340;2023-05-16T00:52:14;14.77;;;13.20;;
9689;SDS011;4884;42.614;23.340;2023-05-16T00:54:39;16.67;;;13.50;;
9689;SDS011;4884;42.614;23.340;2023-05-16T00:57:05;17.90;;;14.83;;
9689;SDS011;4884;42.614;23.340;2023-05-16T00:59:31;14.30;;;12.60;;
9689;SDS011;4884;42.614;23.340;2023-05-16T01:01:56;21.60;;;16.83;;
9689;SDS011;4884;42.614;23.340;2023-05-16T01:04:22;23.10;;;20.60;;
9689;SDS011;4884;42.614;23.340;2023-05-16T01:06:47;21.07;;;18.93;;
9689;SDS011;4884;42.614;23.340;2023-05-16T01:09:12;26.70;;;20.97;;
9689;SDS011;4884;42.614;23.340;2023-05-16T01:20:24;20.60;;;18.60;;
9689;SDS011;4884;42.614;23.340;2023-05-16T01:28:37;21.33;;;17.43;;
9689;SDS011;4884;42.614;23.340;2023-05-16T01:31:04;16.80;;;15.30;;
9689;SDS011;4884;42.614;23.340;2023-05-16T01:33:30;17.57;;;15.73;;
9689;SDS011;4884;42.614;23.340;2023-05-16T01:36:07;22.70;;;16.30;;
9689;SDS011;4884;42.614;23.340;2023-05-16T01:38:40;19.70;;;15.40;;
9689;SDS011;4884;42.614;23.340;2023-05-16T01:43:47;18.30;;;16.40;;
9689;SDS011;4884;42.614;23.340;2023-05-16T01:46:14;20.53;;;18.43;;
9689;SDS011;4884;42.614;23.340;2023-05-16T01:48:48;20.73;;;18.73;;
9689;SDS011;4884;42.614;23.340;2023-05-16T01:51:17;21.43;;;18.83;;
9689;SDS011;4884;42.614;23.340;2023-05-16T01:53:45;23.13;;;20.93;;
9689;SDS011;4884;42.614;23.340;2023-05-16T01:56:13;21.60;;;19.50;;
9689;SDS011;4884;42.614;23.340;2023-05-16T01:58:40;23.17;;;20.80;;
9689;SDS011;4884;42.614;23.340;2023-05-16T02:01:06;22.40;;;20.23;;
9689;SDS011;4884;42.614;23.340;2023-05-16T02:03:32;23.80;;;20.83;;
9689;SDS011;4884;42.614;23.340;2023-05-16T02:05:58;22.10;;;19.50;;
9689;SDS011;4884;42.614;23.340;2023-05-16T02:08:24;23.30;;;19.50;;
9689;SDS011;4884;42.614;23.340;2023-05-16T02:10:50;21.97;;;19.77;;
9689;SDS011;4884;42.614;23.340;2023-05-16T02:13:16;21.00;;;18.60;;
9689;SDS011;4884;42.614;23.340;2023-05-16T02:15:41;21.10;;;19.00;;
9689;SDS011;4884;42.614;23.340;2023-05-16T02:18:07;21.60;;;19.47;;
9689;SDS011;4884;42.614;23.340;2023-05-16T02:20:33;21.00;;;18.83;;
9689;SDS011;4884;42.614;23.340;2023-05-16T02:22:58;21.27;;;19.20;;
9689;SDS011;4884;42.614;23.340;2023-05-16T02:25:24;22.57;;;20.20;;
9689;SDS011;4884;42.614;23.340;2023-05-16T02:27:49;22.53;;;20.17;;
9689;SDS011;4884;42.614;23.340;2023-05-16T02:30:15;22.03;;;19.77;;
9689;SDS011;4884;42.614;23.340;2023-05-16T02:32:40;21.57;;;19.57;;
9689;SDS011;4884;42.614;23.340;2023-05-16T02:35:09;21.33;;;19.10;;
9689;SDS011;4884;42.614;23.340;2023-05-16T02:37:34;21.47;;;19.40;;
9689;SDS011;4884;42.614;23.340;2023-05-16T02:40:00;27.07;;;19.83;;
9689;SDS011;4884;42.614;23.340;2023-05-16T02:42:25;21.20;;;19.00;;
9689;SDS011;4884;42.614;23.340;2023-05-16T02:44:51;20.90;;;18.73;;
9689;SDS011;4884;42.614;23.340;2023-05-16T02:47:17;21.67;;;19.50;;
9689;SDS011;4884;42.614;23.340;2023-05-16T02:49:42;20.97;;;18.97;;
9689;SDS011;4884;42.614;23.340;2023-05-16T02:52:08;22.43;;;19.07;;
9689;SDS011;4884;42.614;23.340;2023-05-16T02:54:34;22.57;;;20.13;;
9689;SDS011;4884;42.614;23.340;2023-05-16T02:56:59;22.00;;;20.00;;
9689;SDS011;4884;42.614;23.340;2023-05-16T02:59:25;21.60;;;19.47;;
9689;SDS011;4884;42.614;23.340;2023-05-16T03:01:50;24.13;;;20.93;;
9689;SDS011;4884;42.614;23.340;2023-05-16T03:04:16;25.07;;;21.37;;
9689;SDS011;4884;42.614;23.340;2023-05-16T03:06:42;24.70;;;22.13;;
9689;SDS011;4884;42.614;23.340;2023-05-16T03:09:07;22.67;;;20.37;;
9689;SDS011;4884;42.614;23.340;2023-05-16T03:11:33;22.30;;;19.30;;
9689;SDS011;4884;42.614;23.340;2023-05-16T03:13:58;23.63;;;20.67;;
9689;SDS011;4884;42.614;23.340;2023-05-16T03:16:24;30.57;;;27.20;;
9689;SDS011;4884;42.614;23.340;2023-05-16T03:18:49;40.57;;;36.67;;
9689;SDS011;4884;42.614;23.340;2023-05-16T03:21:15;30.40;;;27.30;;
9689;SDS011;4884;42.614;23.340;2023-05-16T03:23:40;36.10;;;31.50;;
9689;SDS011;4884;42.614;23.340;2023-05-16T03:26:06;26.23;;;23.43;;
9689;SDS011;4884;42.614;23.340;2023-05-16T03:28:31;18.40;;;16.57;;
9689;SDS011;4884;42.614;23.340;2023-05-16T03:30:57;25.53;;;19.17;;
9689;SDS011;4884;42.614;23.340;2023-05-16T03:33:22;22.17;;;19.33;;
9689;SDS011;4884;42.614;23.340;2023-05-16T03:35:48;21.33;;;18.73;;
9689;SDS011;4884;42.614;23.340;2023-05-16T03:38:13;22.30;;;19.20;;
9689;SDS011;4884;42.614;23.340;2023-05-16T03:40:39;23.20;;;21.00;;
9689;SDS011;4884;42.614;23.340;2023-05-16T03:43:05;21.73;;;19.40;;
9689;SDS011;4884;42.614;23.340;2023-05-16T03:45:30;35.70;;;31.33;;
9689;SDS011;4884;42.614;23.340;2023-05-16T03:47:56;22.60;;;20.30;;
9689;SDS011;4884;42.614;23.340;2023-05-16T03:50:21;21.07;;;18.57;;
9689;SDS011;4884;42.614;23.340;2023-05-16T03:52:47;20.80;;;18.60;;
9689;SDS011;4884;42.614;23.340;2023-05-16T03:55:12;20.07;;;17.47;;
9689;SDS011;4884;42.614;23.340;2023-05-16T03:57:39;20.00;;;17.90;;
9689;SDS011;4884;42.614;23.340;2023-05-16T04:00:05;22.00;;;19.30;;
9689;SDS011;4884;42.614;23.340;2023-05-16T04:02:32;20.80;;;17.30;;
9689;SDS011;4884;42.614;23.340;2023-05-16T04:04:57;20.97;;;18.77;;
9689;SDS011;4884;42.614;23.340;2023-05-16T04:07:23;21.63;;;19.40;;
9689;SDS011;4884;42.614;23.340;2023-05-16T04:09:49;20.70;;;18.67;;
9689;SDS011;4884;42.614;23.340;2023-05-16T04:12:15;21.33;;;18.47;;
9689;SDS011;4884;42.614;23.340;2023-05-16T04:14:41;21.80;;;18.33;;
9689;SDS011;4884;42.614;23.340;2023-05-16T04:17:06;19.93;;;18.13;;
9689;SDS011;4884;42.614;23.340;2023-05-16T04:19:31;23.03;;;20.20;;
9689;SDS011;4884;42.614;23.340;2023-05-16T04:21:57;21.50;;;19.27;;
9689;SDS011;4884;42.614;23.340;2023-05-16T04:24:22;22.17;;;17.83;;
9689;SDS011;4884;42.614;23.340;2023-05-16T04:26:50;21.27;;;19.27;;
9689;SDS011;4884;42.614;23.340;2023-05-16T04:29:16;23.17;;;18.63;;
9689;SDS011;4884;42.614;23.340;2023-05-16T04:31:41;20.37;;;18.10;;
9689;SDS011;4884;42.614;23.340;2023-05-16T04:34:07;28.57;;;22.10;;
9689;SDS011;4884;42.614;23.340;2023-05-16T04:36:32;22.63;;;20.37;;
9689;SDS011;4884;42.614;23.340;2023-05-16T04:38:59;22.77;;;18.33;;
9689;SDS011;4884;42.614;23.340;2023-05-16T04:41:25;22.93;;;19.10;;
9689;SDS011;4884;42.614;23.340;2023-05-16T04:43:50;24.03;;;20.13;;
9689;SDS011;4884;42.614;23.340;2023-05-16T04:46:16;21.13;;;18.57;;
9689;SDS011;4884;42.614;23.340;2023-05-16T04:48:41;27.93;;;20.27;;
9689;SDS011;4884;42.614;23.340;2023-05-16T04:51:06;21.33;;;18.07;;
9689;SDS011;4884;42.614;23.340;2023-05-16T04:53:32;18.10;;;16.30;;
9689;SDS011;4884;42.614;23.340;2023-05-16T04:55:58;19.50;;;14.23;;
9689;SDS011;4884;42.614;23.340;2023-05-16T04:58:24;17.20;;;15.13;;
9689;SDS011;4884;42.614;23.340;2023-05-16T05:00:50;14.50;;;12.90;;
9689;SDS011;4884;42.614;23.340;2023-05-16T05:03:15;26.87;;;20.03;;
9689;SDS011;4884;42.614;23.340;2023-05-16T05:05:42;19.73;;;17.73;;
9689;SDS011;4884;42.614;23.340;2023-05-16T05:08:07;27.37;;;24.70;;
9689;SDS011;4884;42.614;23.340;2023-05-16T05:10:33;27.40;;;24.43;;
9689;SDS011;4884;42.614;23.340;2023-05-16T05:12:59;17.43;;;14.83;;
9689;SDS011;4884;42.614;23.340;2023-05-16T05:15:24;14.87;;;13.37;;
9689;SDS011;4884;42.614;23.340;2023-05-16T05:17:49;14.47;;;11.67;;
9689;SDS011;4884;42.614;23.340;2023-05-16T05:20:15;12.73;;;11.53;;
9689;SDS011;4884;42.614;23.340;2023-05-16T05:22:40;26.60;;;11.37;;
9689;SDS011;4884;42.614;23.340;2023-05-16T05:25:06;14.87;;;11.63;;
9689;SDS011;4884;42.614;23.340;2023-05-16T05:27:32;13.93;;;11.00;;
9689;SDS011;4884;42.614;23.340;2023-05-16T05:29:57;18.03;;;10.53;;
9689;SDS011;4884;42.614;23.340;2023-05-16T05:32:23;13.27;;;11.87;;
9689;SDS011;4884;42.614;23.340;2023-05-16T05:34:48;12.23;;;11.03;;
9689;SDS011;4884;42.614;23.340;2023-05-16T05:37:13;12.43;;;11.13;;
9689;SDS011;4884;42.614;23.340;2023-05-16T05:39:39;16.03;;;12.60;;
9689;SDS011;4884;42.614;23.340;2023-05-16T05:42:05;14.37;;;12.87;;
9689;SDS011;4884;42.614;23.340;2023-05-16T05:44:30;13.60;;;12.13;;
9689;SDS011;4884;42.614;23.340;2023-05-16T05:46:56;15.30;;;13.03;;
9689;SDS011;4884;42.614;23.340;2023-05-16T05:49:22;14.70;;;13.20;;
9689;SDS011;4884;42.614;23.340;2023-05-16T05:51:48;14.50;;;13.00;;
9689;SDS011;4884;42.614;23.340;2023-05-16T05:54:16;15.50;;;14.00;;
9689;SDS011;4884;42.614;23.340;2023-05-16T05:56:44;16.87;;;15.10;;
9689;SDS011;4884;42.614;23.340;2023-05-16T05:59:10;15.40;;;14.00;;
9689;SDS011;4884;42.614;23.340;2023-05-16T06:01:35;16.40;;;14.43;;
9689;SDS011;4884;42.614;23.340;2023-05-16T06:04:01;17.93;;;14.10;;
9689;SDS011;4884;42.614;23.340;2023-05-16T06:06:26;14.87;;;13.47;;
9689;SDS011;4884;42.614;23.340;2023-05-16T06:08:53;14.63;;;13.23;;
9689;SDS011;4884;42.614;23.340;2023-05-16T06:11:18;16.33;;;14.63;;
9689;SDS011;4884;42.614;23.340;2023-05-16T06:13:44;15.67;;;14.03;;
9689;SDS011;4884;42.614;23.340;2023-05-16T06:16:09;17.00;;;14.00;;
9689;SDS011;4884;42.614;23.340;2023-05-16T06:18:35;18.73;;;14.90;;
9689;SDS011;4884;42.614;23.340;2023-05-16T06:21:00;14.97;;;13.47;;
9689;SDS011;4884;42.614;23.340;2023-05-16T06:23:25;14.57;;;13.07;;
9689;SDS011;4884;42.614;23.340;2023-05-16T06:25:51;15.60;;;14.10;;
9689;SDS011;4884;42.614;23.340;2023-05-16T06:28:17;14.93;;;13.43;;
9689;SDS011;4884;42.614;23.340;2023-05-16T06:30:42;14.57;;;13.13;;
9689;SDS011;4884;42.614;23.340;2023-05-16T06:33:07;13.33;;;12.03;;
9689;SDS011;4884;42.614;23.340;2023-05-16T06:35:33;14.83;;;12.23;;
9689;SDS011;4884;42.614;23.340;2023-05-16T06:37:58;17.13;;;10.27;;
9689;SDS011;4884;42.614;23.340;2023-05-16T06:40:24;13.60;;;9.30;;
9689;SDS011;4884;42.614;23.340;2023-05-16T06:42:49;12.03;;;9.00;;
9689;SDS011;4884;42.614;23.340;2023-05-16T06:45:14;16.50;;;8.83;;
9689;SDS011;4884;42.614;23.340;2023-05-16T06:47:40;12.50;;;8.77;;
9689;SDS011;4884;42.614;23.340;2023-05-16T06:50:06;12.53;;;7.03;;
9689;SDS011;4884;42.614;23.340;2023-05-16T06:52:31;8.00;;;7.20;;
9689;SDS011;4884;42.614;23.340;2023-05-16T06:54:57;7.40;;;6.60;;
9689;SDS011;4884;42.614;23.340;2023-05-16T06:57:22;14.83;;;7.60;;
9689;SDS011;4884;42.614;23.340;2023-05-16T06:59:48;12.00;;;7.10;;
9689;SDS011;4884;42.614;23.340;2023-05-16T07:02:13;8.97;;;6.93;;
9689;SDS011;4884;42.614;23.340;2023-05-16T07:04:38;34.27;;;21.80;;
9689;SDS011;4884;42.614;23.340;2023-05-16T07:07:04;8.77;;;7.47;;
9689;SDS011;4884;42.614;23.340;2023-05-16T07:09:31;9.23;;;7.97;;
9689;SDS011;4884;42.614;23.340;2023-05-16T07:11:57;8.90;;;7.00;;
9689;SDS011;4884;42.614;23.340;2023-05-16T07:14:22;8.80;;;7.90;;
9689;SDS011;4884;42.614;23.340;2023-05-16T07:16:47;9.50;;;7.50;;
9689;SDS011;4884;42.614;23.340;2023-05-16T07:19:13;14.93;;;8.03;;
9689;SDS011;4884;42.614;23.340;2023-05-16T07:21:38;8.50;;;7.53;;
9689;SDS011;4884;42.614;23.340;2023-05-16T07:24:04;13.10;;;7.87;;
9689;SDS011;4884;42.614;23.340;2023-05-16T07:26:30;8.20;;;7.40;;
9689;SDS011;4884;42.614;23.340;2023-05-16T07:28:56;16.47;;;8.73;;
9689;SDS011;4884;42.614;23.340;2023-05-16T07:31:21;10.10;;;7.77;;
9689;SDS011;4884;42.614;23.340;2023-05-16T07:33:48;13.07;;;8.37;;
9689;SDS011;4884;42.614;23.340;2023-05-16T07:36:13;12.90;;;7.83;;
9689;SDS011;4884;42.614;23.340;2023-05-16T07:38:39;11.67;;;8.60;;
9689;SDS011;4884;42.614;23.340;2023-05-16T07:41:04;8.27;;;7.47;;
9689;SDS011;4884;42.614;23.340;2023-05-16T07:43:30;13.77;;;8.13;;
9689;SDS011;4884;42.614;23.340;2023-05-16T07:45:56;9.03;;;8.13;;
9689;SDS011;4884;42.614;23.340;2023-05-16T07:48:21;11.50;;;9.27;;
9689;SDS011;4884;42.614;23.340;2023-05-16T07:50:47;10.87;;;7.47;;
9689;SDS011;4884;42.614;23.340;2023-05-16T07:53:12;12.50;;;8.07;;
9689;SDS011;4884;42.614;23.340;2023-05-16T07:55:38;11.00;;;8.90;;
9689;SDS011;4884;42.614;23.340;2023-05-16T07:58:03;11.97;;;8.77;;
9689;SDS011;4884;42.614;23.340;2023-05-16T08:00:29;9.93;;;8.40;;
9689;SDS011;4884;42.614;23.340;2023-05-16T08:02:55;11.10;;;8.40;;
9689;SDS011;4884;42.614;23.340;2023-05-16T08:05:21;10.87;;;9.57;;
9689;SDS011;4884;42.614;23.340;2023-05-16T08:07:47;13.80;;;9.20;;
9689;SDS011;4884;42.614;23.340;2023-05-16T08:10:12;12.73;;;9.70;;
9689;SDS011;4884;42.614;23.340;2023-05-16T08:12:38;12.57;;;9.40;;
9689;SDS011;4884;42.614;23.340;2023-05-16T08:15:04;10.83;;;8.50;;
9689;SDS011;4884;42.614;23.340;2023-05-16T08:17:29;11.73;;;8.57;;
9689;SDS011;4884;42.614;23.340;2023-05-16T08:19:55;12.10;;;9.03;;
9689;SDS011;4884;42.614;23.340;2023-05-16T08:22:20;11.97;;;7.80;;
9689;SDS011;4884;42.614;23.340;2023-05-16T08:24:46;10.70;;;8.80;;
9689;SDS011;4884;42.614;23.340;2023-05-16T08:27:11;14.70;;;9.00;;
9689;SDS011;4884;42.614;23.340;2023-05-16T08:29:36;9.70;;;8.77;;
9689;SDS011;4884;42.614;23.340;2023-05-16T08:32:02;9.17;;;8.27;;
9689;SDS011;4884;42.614;23.340;2023-05-16T08:34:29;12.70;;;8.33;;
9689;SDS011;4884;42.614;23.340;2023-05-16T08:36:56;10.47;;;7.77;;
9689;SDS011;4884;42.614;23.340;2023-05-16T08:39:21;12.37;;;8.30;;
9689;SDS011;4884;42.614;23.340;2023-05-16T08:41:46;9.70;;;8.00;;
9689;SDS011;4884;42.614;23.340;2023-05-16T08:44:12;12.67;;;8.03;;
9689;SDS011;4884;42.614;23.340;2023-05-16T08:46:45;12.20;;;8.10;;
9689;SDS011;4884;42.614;23.340;2023-05-16T08:49:17;9.43;;;7.27;;
9689;SDS011;4884;42.614;23.340;2023-05-16T08:51:43;9.43;;;7.93;;
9689;SDS011;4884;42.614;23.340;2023-05-16T08:54:11;8.57;;;6.53;;
9689;SDS011;4884;42.614;23.340;2023-05-16T08:56:38;11.60;;;7.37;;
9689;SDS011;4884;42.614;23.340;2023-05-16T08:59:05;8.60;;;6.30;;
9689;SDS011;4884;42.614;23.340;2023-05-16T09:01:31;10.17;;;6.63;;
9689;SDS011;4884;42.614;23.340;2023-05-16T09:03:57;12.10;;;8.70;;
9689;SDS011;4884;42.614;23.340;2023-05-16T09:06:24;10.23;;;7.60;;
9689;SDS011;4884;42.614;23.340;2023-05-16T09:08:50;14.43;;;8.37;;
9689;SDS011;4884;42.614;23.340;2023-05-16T09:11:16;11.37;;;8.50;;
9689;SDS011;4884;42.614;23.340;2023-05-16T09:13:42;9.87;;;8.13;;
9689;SDS011;4884;42.614;23.340;2023-05-16T09:18:44;10.67;;;7.73;;
9689;SDS011;4884;42.614;23.340;2023-05-16T09:21:11;12.43;;;8.87;;
9689;SDS011;4884;42.614;23.340;2023-05-16T09:23:37;9.77;;;8.07;;
9689;SDS011;4884;42.614;23.340;2023-05-16T09:26:04;10.67;;;8.57;;
9689;SDS011;4884;42.614;23.340;2023-05-16T09:28:31;13.03;;;8.30;;
9689;SDS011;4884;42.614;23.340;2023-05-16T09:30:56;12.27;;;8.53;;
9689;SDS011;4884;42.614;23.340;2023-05-16T09:33:27;13.80;;;8.73;;
9689;SDS011;4884;42.614;23.340;2023-05-16T09:35:59;12.20;;;8.37;;
9689;SDS011;4884;42.614;23.340;2023-05-16T09:38:25;9.90;;;8.33;;
9689;SDS011;4884;42.614;23.340;2023-05-16T09:40:52;11.70;;;8.57;;
9689;SDS011;4884;42.614;23.340;2023-05-16T09:43:22;9.13;;;8.23;;
9689;SDS011;4884;42.614;23.340;2023-05-16T09:45:49;9.93;;;8.20;;
9689;SDS011;4884;42.614;23.340;2023-05-16T09:48:15;12.77;;;8.93;;
9689;SDS011;4884;42.614;23.340;2023-05-16T09:50:45;13.63;;;9.50;;
9689;SDS011;4884;42.614;23.340;2023-05-16T09:53:13;11.97;;;8.63;;
9689;SDS011;4884;42.614;23.340;2023-05-16T09:55:39;14.87;;;8.63;;
9689;SDS011;4884;42.614;23.340;2023-05-16T09:58:04;13.87;;;8.73;;
9689;SDS011;4884;42.614;23.340;2023-05-16T10:00:31;13.40;;;9.03;;
9689;SDS011;4884;42.614;23.340;2023-05-16T10:02:58;10.80;;;8.43;;
9689;SDS011;4884;42.614;23.340;2023-05-16T10:05:25;11.27;;;9.90;;
9689;SDS011;4884;42.614;23.340;2023-05-16T10:07:51;17.30;;;11.93;;
9689;SDS011;4884;42.614;23.340;2023-05-16T10:10:22;11.10;;;8.17;;
9689;SDS011;4884;42.614;23.340;2023-05-16T10:12:49;11.50;;;8.77;;
9689;SDS011;4884;42.614;23.340;2023-05-16T10:15:15;11.03;;;8.80;;
9689;SDS011;4884;42.614;23.340;2023-05-16T10:17:42;11.07;;;8.97;;
9689;SDS011;4884;42.614;23.340;2023-05-16T10:20:07;11.77;;;8.03;;
9689;SDS011;4884;42.614;23.340;2023-05-16T10:22:34;9.10;;;8.20;;
9689;SDS011;4884;42.614;23.340;2023-05-16T10:25:35;10.40;;;8.93;;
9689;SDS011;4884;42.614;23.340;2023-05-16T10:27:52;9.13;;;8.03;;
9689;SDS011;4884;42.614;23.340;2023-05-16T10:30:18;9.87;;;8.87;;
9689;SDS011;4884;42.614;23.340;2023-05-16T10:32:44;9.87;;;8.67;;
9689;SDS011;4884;42.614;23.340;2023-05-16T10:35:10;13.20;;;9.00;;
9689;SDS011;4884;42.614;23.340;2023-05-16T10:37:35;10.93;;;9.70;;
9689;SDS011;4884;42.614;23.340;2023-05-16T10:40:01;10.97;;;9.97;;
9689;SDS011;4884;42.614;23.340;2023-05-16T10:42:32;12.37;;;9.03;;
9689;SDS011;4884;42.614;23.340;2023-05-16T10:47:40;9.83;;;8.93;;
9689;SDS011;4884;42.614;23.340;2023-05-16T10:50:05;13.50;;;9.17;;
9689;SDS011;4884;42.614;23.340;2023-05-16T10:52:32;9.77;;;8.57;;
9689;SDS011;4884;42.614;23.340;2023-05-16T10:54:58;11.63;;;8.93;;
9689;SDS011;4884;42.614;23.340;2023-05-16T10:57:27;11.23;;;10.07;;
9689;SDS011;4884;42.614;23.340;2023-05-16T10:59:53;10.40;;;9.13;;
9689;SDS011;4884;42.614;23.340;2023-05-16T11:02:32;12.90;;;8.70;;
9689;SDS011;4884;42.614;23.340;2023-05-16T11:05:05;11.67;;;9.70;;
9689;SDS011;4884;42.614;23.340;2023-05-16T11:07:32;10.67;;;9.57;;
9689;SDS011;4884;42.614;23.340;2023-05-16T11:10:02;13.17;;;10.23;;
9689;SDS011;4884;42.614;23.340;2023-05-16T11:12:54;11.30;;;10.30;;
9689;SDS011;4884;42.614;23.340;2023-05-16T11:15:27;11.73;;;9.13;;
9689;SDS011;4884;42.614;23.340;2023-05-16T11:18:05;11.27;;;10.10;;
9689;SDS011;4884;42.614;23.340;2023-05-16T11:20:36;15.37;;;9.67;;
9689;SDS011;4884;42.614;23.340;2023-05-16T11:25:55;10.90;;;9.67;;
9689;SDS011;4884;42.614;23.340;2023-05-16T11:28:25;15.33;;;9.30;;
9689;SDS011;4884;42.614;23.340;2023-05-16T11:30:52;10.60;;;9.47;;
9689;SDS011;4884;42.614;23.340;2023-05-16T11:33:20;9.90;;;9.00;;
9689;SDS011;4884;42.614;23.340;2023-05-16T11:35:59;14.50;;;10.70;;
9689;SDS011;4884;42.614;23.340;2023-05-16T11:38:33;10.40;;;8.93;;
9689;SDS011;4884;42.614;23.340;2023-05-16T11:41:06;13.33;;;8.73;;
9689;SDS011;4884;42.614;23.340;2023-05-16T11:43:36;15.03;;;8.80;;
9689;SDS011;4884;42.614;23.340;2023-05-16T11:46:05;10.67;;;8.90;;
9689;SDS011;4884;42.614;23.340;2023-05-16T11:48:31;11.20;;;8.37;;
9689;SDS011;4884;42.614;23.340;2023-05-16T11:50:57;12.30;;;8.40;;
9689;SDS011;4884;42.614;23.340;2023-05-16T11:53:22;12.67;;;8.63;;
9689;SDS011;4884;42.614;23.340;2023-05-16T11:55:48;14.67;;;8.53;;
9689;SDS011;4884;42.614;23.340;2023-05-16T11:58:16;10.83;;;8.43;;
9689;SDS011;4884;42.614;23.340;2023-05-16T12:00:47;12.77;;;8.30;;
9689;SDS011;4884;42.614;23.340;2023-05-16T12:03:13;13.17;;;8.40;;
9689;SDS011;4884;42.614;23.340;2023-05-16T12:05:39;10.90;;;9.33;;
9689;SDS011;4884;42.614;23.340;2023-05-16T12:08:15;11.97;;;8.53;;
9689;SDS011;4884;42.614;23.340;2023-05-16T12:10:40;12.50;;;9.10;;
9689;SDS011;4884;42.614;23.340;2023-05-16T12:13:06;9.60;;;8.53;;
9689;SDS011;4884;42.614;23.340;2023-05-16T12:15:32;9.43;;;8.53;;
9689;SDS011;4884;42.614;23.340;2023-05-16T12:17:57;9.70;;;8.33;;
9689;SDS011;4884;42.614;23.340;2023-05-16T12:20:23;9.63;;;8.40;;
9689;SDS011;4884;42.614;23.340;2023-05-16T12:22:49;13.00;;;8.52;;
9689;SDS011;4884;42.614;23.340;2023-05-16T12:27:45;11.52;;;8.13;;
9689;SDS011;4884;42.614;23.340;2023-05-16T12:30:11;11.88;;;9.00;;
9689;SDS011;4884;42.614;23.340;2023-05-16T12:32:37;10.88;;;8.20;;
9689;SDS011;4884;42.614;23.340;2023-05-16T12:35:02;11.23;;;9.00;;
9689;SDS011;4884;42.614;23.340;2023-05-16T12:37:28;9.60;;;8.43;;
9689;SDS011;4884;42.614;23.340;2023-05-16T12:39:58;13.93;;;9.20;;
9689;SDS011;4884;42.614;23.340;2023-05-16T12:42:25;13.77;;;9.37;;
9689;SDS011;4884;42.614;23.340;2023-05-16T12:44:54;16.20;;;8.40;;
9689;SDS011;4884;42.614;23.340;2023-05-16T12:47:20;11.20;;;9.20;;
9689;SDS011;4884;42.614;23.340;2023-05-16T12:49:45;13.20;;;8.83;;
9689;SDS011;4884;42.614;23.340;2023-05-16T12:52:18;12.00;;;8.70;;
9689;SDS011;4884;42.614;23.340;2023-05-16T12:54:45;11.47;;;9.17;;
9689;SDS011;4884;42.614;23.340;2023-05-16T12:57:10;14.87;;;9.87;;
9689;SDS011;4884;42.614;23.340;2023-05-16T12:59:36;13.93;;;10.30;;
9689;SDS011;4884;42.614;23.340;2023-05-16T13:02:02;12.73;;;10.13;;
9689;SDS011;4884;42.614;23.340;2023-05-16T13:04:28;13.87;;;10.10;;
9689;SDS011;4884;42.614;23.340;2023-05-16T13:06:53;16.73;;;10.63;;
9689;SDS011;4884;42.614;23.340;2023-05-16T13:09:18;11.80;;;10.23;;
9689;SDS011;4884;42.614;23.340;2023-05-16T13:11:44;12.13;;;10.97;;
9689;SDS011;4884;42.614;23.340;2023-05-16T13:14:09;21.90;;;10.60;;
9689;SDS011;4884;42.614;23.340;2023-05-16T13:16:35;17.57;;;11.93;;
9689;SDS011;4884;42.614;23.340;2023-05-16T13:19:01;16.90;;;10.13;;
9689;SDS011;4884;42.614;23.340;2023-05-16T13:21:26;12.53;;;10.47;;
9689;SDS011;4884;42.614;23.340;2023-05-16T13:23:54;10.50;;;9.50;;
9689;SDS011;4884;42.614;23.340;2023-05-16T13:26:19;10.87;;;9.87;;
9689;SDS011;4884;42.614;23.340;2023-05-16T13:28:46;11.87;;;9.50;;
9689;SDS011;4884;42.614;23.340;2023-05-16T13:31:15;10.40;;;9.40;;
9689;SDS011;4884;42.614;23.340;2023-05-16T13:33:40;14.77;;;9.73;;
9689;SDS011;4884;42.614;23.340;2023-05-16T13:36:06;15.87;;;11.17;;
9689;SDS011;4884;42.614;23.340;2023-05-16T13:38:31;12.87;;;10.80;;
9689;SDS011;4884;42.614;23.340;2023-05-16T13:40:57;13.50;;;10.83;;
9689;SDS011;4884;42.614;23.340;2023-05-16T13:43:22;17.33;;;12.43;;
9689;SDS011;4884;42.614;23.340;2023-05-16T13:45:48;19.83;;;13.77;;
9689;SDS011;4884;42.614;23.340;2023-05-16T13:48:13;15.60;;;12.37;;
9689;SDS011;4884;42.614;23.340;2023-05-16T13:50:38;15.20;;;13.50;;
9689;SDS011;4884;42.614;23.340;2023-05-16T13:53:04;19.73;;;14.00;;
9689;SDS011;4884;42.614;23.340;2023-05-16T13:55:30;18.70;;;14.00;;
9689;SDS011;4884;42.614;23.340;2023-05-16T13:57:55;17.97;;;12.63;;
9689;SDS011;4884;42.614;23.340;2023-05-16T14:00:20;13.33;;;11.87;;
9689;SDS011;4884;42.614;23.340;2023-05-16T14:02:46;15.33;;;13.70;;
9689;SDS011;4884;42.614;23.340;2023-05-16T14:05:11;17.20;;;13.33;;
9689;SDS011;4884;42.614;23.340;2023-05-16T14:07:37;21.60;;;14.47;;
9689;SDS011;4884;42.614;23.340;2023-05-16T14:10:02;21.73;;;13.83;;
9689;SDS011;4884;42.614;23.340;2023-05-16T14:12:29;25.10;;;14.90;;
9689;SDS011;4884;42.614;23.340;2023-05-16T14:14:55;23.50;;;15.20;;
9689;SDS011;4884;42.614;23.340;2023-05-16T14:17:20;24.07;;;15.87;;
9689;SDS011;4884;42.614;23.340;2023-05-16T14:19:46;22.60;;;17.47;;
9689;SDS011;4884;42.614;23.340;2023-05-16T14:22:11;28.30;;;17.27;;
9689;SDS011;4884;42.614;23.340;2023-05-16T14:24:37;23.43;;;15.63;;
9689;SDS011;4884;42.614;23.340;2023-05-16T14:27:02;28.97;;;16.20;;
9689;SDS011;4884;42.614;23.340;2023-05-16T14:29:28;17.20;;;13.27;;
9689;SDS011;4884;42.614;23.340;2023-05-16T14:31:53;18.33;;;13.47;;
9689;SDS011;4884;42.614;23.340;2023-05-16T14:34:19;18.37;;;14.40;;
9689;SDS011;4884;42.614;23.340;2023-05-16T14:36:46;21.97;;;14.43;;
9689;SDS011;4884;42.614;23.340;2023-05-16T14:39:11;19.50;;;13.47;;
9689;SDS011;4884;42.614;23.340;2023-05-16T14:41:37;21.57;;;14.97;;
9689;SDS011;4884;42.614;23.340;2023-05-16T14:44:03;19.03;;;16.20;;
9689;SDS011;4884;42.614;23.340;2023-05-16T14:46:28;20.07;;;15.20;;
9689;SDS011;4884;42.614;23.340;2023-05-16T14:48:53;23.27;;;16.70;;
9689;SDS011;4884;42.614;23.340;2023-05-16T14:51:19;21.77;;;16.03;;
9689;SDS011;4884;42.614;23.340;2023-05-16T14:53:44;19.00;;;15.53;;
9689;SDS011;4884;42.614;23.340;2023-05-16T14:56:11;23.87;;;17.30;;
9689;SDS011;4884;42.614;23.340;2023-05-16T14:58:36;16.77;;;15.17;;
9689;SDS011;4884;42.614;23.340;2023-05-16T15:01:02;27.70;;;16.47;;
9689;SDS011;4884;42.614;23.340;2023-05-16T15:03:27;21.27;;;16.73;;